ESGJ/JKG METAR and TAF weather

Enter ICAO airport designator
Station Type Date Time Source
ESGJ METAR 2021/08/05 04:20 UTC NOAA

ESGJ 050420Z AUTO 00000KT 9999 NCD 07/07 Q1014


Station Type Date Time Source
ESGJ Decoded METAR 2021/08/05 04:20 UTC NOAA

Jonkoping Flygplats, Sweden (ESGJ) 57-46N 014-05E 232M
Aug 05, 2021 - 12:20 AM EDT / 2021.08.05 0420 UTC
Wind: Calm:0
Visibility: greater than 7 mile(s):0
Temperature: 44 F (7 C)
Dew Point: 44 F (7 C)
Relative Humidity: 100%
Pressure (altimeter): 29.94 in. Hg (1014 hPa)
ob: ESGJ 050420Z AUTO 00000KT 9999 NCD 07/07 Q1014
cycle: 4

Station Type Date Time Source
ESGJ TAF 2015/05/01 23:06 UTC NOAA

TAF TAF ESGJ 302359Z 3023/0101 CNL

Example: see airport list